Time;durP1;ratioP1;P1;durP2;ratioP2;P2;SDS_P1;SDS_P2;PMS_P1;PMS_P2;Temp;Humidity;BMP_temperature;BMP_pressure;BME280_temperature;BME280_humidity;BME280_pressure;Samples;Min_cycle;Max_cycle;Signal;HPM_P1;HPM_P2
2022/04/21 00:02:08;;;;;;;13.38;7.68;;;;;;;10.21;68.34;101480.97;5014230;28;20057;-46
2022/04/21 00:04:33;;;;;;;15.63;6.60;;;;;;;10.10;69.37;101486.53;4996657;28;20025;-45
2022/04/21 00:06:58;;;;;;;15.48;7.03;;;;;;;10.16;69.48;101484.06;5013966;28;20129;-46
2022/04/21 00:09:23;;;;;;;11.05;6.63;;;;;;;10.08;69.24;101471.19;5014072;28;20061;-46
2022/04/21 00:11:49;;;;;;;13.43;6.82;;;;;;;10.23;68.92;101471.28;5014284;28;20083;-46
2022/04/21 00:14:14;;;;;;;12.80;6.78;;;;;;;9.94;69.81;101462.34;5013813;28;20398;-46
2022/04/21 00:16:39;;;;;;;12.82;7.00;;;;;;;9.81;70.50;101462.06;5014038;28;20030;-47
2022/04/21 00:19:04;;;;;;;13.98;6.97;;;;;;;9.82;70.87;101462.88;5014022;28;20405;-47
2022/04/21 00:23:26;;;;;;;10.93;6.93;;;;;;;9.82;70.24;101455.94;5014001;28;20116;-47
2022/04/21 00:24:15;;;;;;;12.40;6.70;;;;;;;9.81;70.64;101454.31;5013913;28;20032;-47
2022/04/21 00:26:40;;;;;;;11.35;6.60;;;;;;;9.83;70.77;101446.41;5013857;28;20030;-47
2022/04/21 00:29:05;;;;;;;10.43;6.53;;;;;;;9.86;70.71;101454.63;5014050;28;20041;-51
2022/04/21 00:31:31;;;;;;;13.55;6.50;;;;;;;9.91;71.13;101451.53;5012593;28;20030;-47
2022/04/21 00:33:56;;;;;;;10.95;6.40;;;;;;;9.99;70.08;101448.94;5013365;28;20029;-46
2022/04/21 00:36:21;;;;;;;10.10;6.38;;;;;;;10.00;70.51;101452.31;5012114;28;20079;-45
2022/04/21 00:38:46;;;;;;;9.77;6.78;;;;;;;9.97;71.14;101447.50;5013260;28;20485;-46
2022/04/21 00:41:12;;;;;;;10.18;6.53;;;;;;;9.87;71.06;101445.13;5013382;28;20032;-47
2022/04/21 00:43:37;;;;;;;9.73;6.35;;;;;;;9.66;72.12;101443.84;5013670;28;20033;-47
2022/04/21 00:46:03;;;;;;;12.75;6.40;;;;;;;9.72;71.42;101442.38;5013903;28;20026;-47
2022/04/21 00:48:29;;;;;;;10.80;7.15;;;;;;;9.66;71.11;101441.25;5013795;28;20110;-47
2022/04/21 00:50:56;;;;;;;13.27;7.18;;;;;;;9.67;71.95;101437.72;5013773;28;20534;-46
2022/04/21 00:53:21;;;;;;;11.57;7.00;;;;;;;9.63;71.69;101439.00;5013452;28;20030;-47
2022/04/21 00:55:47;;;;;;;10.90;6.60;;;;;;;9.70;72.24;101444.34;5013444;28;20030;-46
2022/04/21 00:58:14;;;;;;;10.07;6.57;;;;;;;9.70;72.14;101437.41;5013655;28;20117;-47
2022/04/21 01:00:39;;;;;;;10.90;6.57;;;;;;;9.66;71.72;101438.69;5013656;28;20022;-46
2022/04/21 01:03:06;;;;;;;13.32;6.60;;;;;;;9.41;72.85;101447.47;5013480;28;20491;-47
2022/04/21 01:05:33;;;;;;;9.93;6.47;;;;;;;9.40;72.42;101435.50;4995818;28;20436;-46
2022/04/21 01:08:01;;;;;;;11.25;6.70;;;;;;;9.44;72.74;101439.38;5016865;28;20148;-46
2022/04/21 01:10:28;;;;;;;13.20;6.80;;;;;;;9.43;71.76;101448.06;5017368;28;20129;-46
2022/04/21 01:12:54;;;;;;;11.75;6.65;;;;;;;9.55;72.33;101446.78;5017183;28;20037;-47
2022/04/21 01:15:19;;;;;;;9.00;6.28;;;;;;;9.41;72.43;101444.88;5017283;28;20026;-46
2022/04/21 01:17:48;;;;;;;9.75;6.15;;;;;;;9.26;72.14;101442.94;5016807;28;20167;-46
2022/04/21 01:20:18;;;;;;;11.40;6.70;;;;;;;9.35;72.50;101448.09;5017491;28;20026;-46
2022/04/21 01:22:43;;;;;;;10.05;6.63;;;;;;;9.20;73.13;101446.16;5000547;28;20191;-47
2022/04/21 01:25:09;;;;;;;12.98;6.43;;;;;;;9.19;73.08;101436.81;5017138;28;20025;-47
2022/04/21 01:27:35;;;;;;;12.35;6.95;;;;;;;9.11;72.58;101444.53;4999529;28;20116;-46
2022/04/21 01:30:02;;;;;;;12.20;6.60;;;;;;;9.04;73.08;101441.00;5017367;28;20394;-47
2022/04/21 01:32:27;;;;;;;11.55;6.60;;;;;;;9.06;72.93;101444.22;5017009;28;20068;-46
2022/04/21 01:34:53;;;;;;;10.90;6.57;;;;;;;9.11;72.96;101448.91;5016891;28;20021;-46
2022/04/21 01:42:47;;;;;;;10.60;6.40;;;;;;;9.12;73.07;101445.34;5017445;28;20443;-47
2022/04/21 01:45:12;;;;;;;12.10;6.82;;;;;;;9.25;72.26;101440.53;5017007;28;20026;-46
2022/04/21 01:47:38;;;;;;;11.32;6.45;;;;;;;9.02;72.42;101448.09;4999199;28;20490;-46
2022/04/21 01:50:07;;;;;;;9.57;6.13;;;;;;;9.00;73.33;101445.66;5017226;28;20041;-46
2022/04/21 01:52:33;;;;;;;9.80;6.18;;;;;;;8.95;73.62;101445.34;5016904;28;20026;-46
2022/04/21 01:54:59;;;;;;;10.15;6.07;;;;;;;8.96;73.48;101451.31;5016503;28;20439;-46
2022/04/21 01:57:24;;;;;;;11.82;6.18;;;;;;;9.00;73.15;101445.66;5016770;28;20038;-46
2022/04/21 01:59:51;;;;;;;10.25;6.13;;;;;;;8.86;73.46;101446.31;5016783;28;20025;-46
2022/04/21 02:02:17;;;;;;;11.20;6.10;;;;;;;8.90;73.59;101441.63;5017037;28;20032;-46
2022/04/21 02:04:42;;;;;;;11.02;6.72;;;;;;;8.91;73.48;101438.88;5016627;28;20099;-46
2022/04/21 02:07:07;;;;;;;11.15;6.20;;;;;;;8.78;74.05;101434.22;5016315;28;20026;-49
2022/04/21 02:09:33;;;;;;;9.52;5.97;;;;;;;8.72;73.96;101431.47;5016282;28;20497;-46
2022/04/21 02:11:58;;;;;;;10.20;6.38;;;;;;;8.79;73.83;101437.59;5016469;28;20025;-46
2022/04/21 02:14:24;;;;;;;13.55;6.10;;;;;;;8.86;74.42;101430.84;5015990;28;20089;-45
2022/04/21 02:16:49;;;;;;;11.95;6.63;;;;;;;9.18;73.03;101426.66;5016146;28;20388;-46
2022/04/21 02:19:14;;;;;;;15.73;6.97;;;;;;;8.92;73.02;101434.53;5016262;28;20061;-45
2022/04/21 02:21:39;;;;;;;10.20;6.35;;;;;;;8.71;73.48;101428.06;5016164;28;20113;-46
2022/04/21 02:24:05;;;;;;;10.40;5.93;;;;;;;8.86;72.75;101430.03;5016098;28;20029;-47
2022/04/21 02:26:31;;;;;;;9.80;5.78;;;;;;;8.90;71.96;101429.56;5016196;28;20495;-46
2022/04/21 02:28:56;;;;;;;11.68;6.35;;;;;;;8.84;73.09;101422.47;5014629;28;20025;-47
2022/04/21 02:31:21;;;;;;;11.65;6.05;;;;;;;8.94;72.19;101423.09;5015923;28;20026;-46
2022/04/21 02:33:47;;;;;;;15.02;6.10;;;;;;;8.89;72.24;101424.53;5016448;28;20033;-46
2022/04/21 02:36:12;;;;;;;10.85;5.90;;;;;;;8.71;72.53;101427.25;5015840;28;20034;-46
2022/04/21 02:38:37;;;;;;;9.77;6.32;;;;;;;8.75;73.26;101424.22;5015775;28;20077;-47
2022/04/21 02:41:04;;;;;;;8.43;5.88;;;;;;;8.92;72.27;101424.22;5016009;28;20026;-47
2022/04/21 02:43:29;;;;;;;9.35;6.20;;;;;;;9.04;71.63;101421.19;5016020;28;20084;-47
2022/04/21 02:45:54;;;;;;;10.70;6.10;;;;;;;8.86;72.32;101412.81;5015694;28;20026;-47
2022/04/21 02:48:20;;;;;;;10.27;5.93;;;;;;;8.88;72.72;101413.44;5015947;28;20026;-47
2022/04/21 02:50:48;;;;;;;8.77;6.15;;;;;;;8.81;72.06;101410.69;5015772;28;20034;-52
2022/04/21 02:53:13;;;;;;;10.88;6.22;;;;;;;8.64;73.19;101421.94;5016102;28;20034;-46
2022/04/21 02:58:23;;;;;;;9.57;6.10;;;;;;;8.58;72.27;101415.66;5015785;28;20528;-50
2022/04/21 03:00:49;;;;;;;8.75;5.90;;;;;;;8.72;72.67;101413.44;4997826;28;20018;-47
2022/04/21 03:03:14;;;;;;;10.45;6.28;;;;;;;8.61;72.57;101408.59;5015286;28;20021;-47
2022/04/21 03:05:39;;;;;;;10.57;5.68;;;;;;;8.65;72.32;101418.41;5016308;28;20021;-47
2022/04/21 03:08:05;;;;;;;11.93;5.97;;;;;;;8.57;72.93;101411.47;5015313;28;20167;-47
2022/04/21 03:10:31;;;;;;;11.35;6.03;;;;;;;8.38;72.62;101408.34;5015458;28;20506;-46
2022/04/21 03:12:58;;;;;;;10.70;6.43;;;;;;;8.43;72.93;101412.09;5014918;28;20135;-46
2022/04/21 03:15:24;;;;;;;9.48;6.00;;;;;;;8.53;72.83;101411.94;5015328;28;20033;-47
2022/04/21 03:17:49;;;;;;;11.30;5.78;;;;;;;8.42;72.75;101410.44;5015101;28;20029;-47
2022/04/21 03:24:18;;;;;;;9.20;5.72;;;;;;;8.65;71.76;101412.44;5015563;28;20035;-47
2022/04/21 03:25:44;;;;;;;10.85;5.72;;;;;;;8.51;71.92;101419.00;5015268;28;20176;-48
2022/04/21 03:28:10;;;;;;;10.25;6.13;;;;;;;8.63;72.11;101406.63;5015139;28;20030;-47
2022/04/21 03:30:35;;;;;;;9.27;5.63;;;;;;;8.65;72.29;101412.44;5014235;28;20032;-47
2022/04/21 03:33:01;;;;;;;11.00;6.22;;;;;;;8.68;71.72;101407.78;5014765;28;20120;-47
2022/04/21 03:35:26;;;;;;;9.15;5.55;;;;;;;8.42;72.25;101404.50;5014940;28;20073;-47
2022/04/21 03:37:52;;;;;;;11.40;5.85;;;;;;;8.50;72.40;101401.94;5015802;28;20104;-47
2022/04/21 03:40:17;;;;;;;10.18;5.85;;;;;;;8.40;72.20;101402.09;5014728;28;20053;-47
2022/04/21 03:42:42;;;;;;;10.20;5.25;;;;;;;8.46;72.65;101409.19;5014634;28;20028;-47
2022/04/21 03:45:08;;;;;;;8.50;5.80;;;;;;;8.32;72.72;101417.50;5014580;28;20424;-48
2022/04/21 03:47:34;;;;;;;9.65;5.97;;;;;;;8.33;73.00;101408.78;4996933;28;20057;-46
2022/04/21 03:49:59;;;;;;;9.05;5.45;;;;;;;8.39;73.02;101415.13;5014494;28;20025;-47
2022/04/21 03:52:25;;;;;;;9.50;5.80;;;;;;;8.34;73.20;101416.38;5015466;28;20088;-51
2022/04/21 03:54:51;;;;;;;10.65;5.60;;;;;;;8.44;73.04;101407.75;5014921;28;20029;-48
2022/04/21 03:57:16;;;;;;;8.20;5.60;;;;;;;8.40;73.50;101412.41;5015134;28;20484;-47
2022/04/21 03:59:41;;;;;;;9.13;5.85;;;;;;;8.29;73.26;101404.94;5014412;28;20060;-47
2022/04/21 04:02:07;;;;;;;10.88;6.05;;;;;;;8.22;73.92;101412.44;5014279;28;20057;-46
2022/04/21 04:04:34;;;;;;;9.68;5.80;;;;;;;8.11;74.24;101412.72;5014490;28;20049;-47
2022/04/21 04:12:33;;;;;;;10.68;6.05;;;;;;;8.11;74.53;101416.13;5014760;28;20503;-46
2022/04/21 04:14:59;;;;;;;8.45;5.68;;;;;;;8.26;73.57;101420.69;5013786;28;20049;-43
2022/04/21 04:17:24;;;;;;;10.70;5.93;;;;;;;8.18;73.82;101412.94;5013642;28;20480;-42
2022/04/21 04:19:50;;;;;;;9.68;5.70;;;;;;;8.13;74.26;101413.41;5012782;28;20037;-45
2022/04/21 04:22:15;;;;;;;8.50;5.60;;;;;;;8.25;73.25;101409.56;5013539;28;20069;-46
2022/04/21 04:24:41;;;;;;;8.93;5.63;;;;;;;8.27;74.03;101412.00;5012805;28;20053;-44
2022/04/21 04:27:06;;;;;;;10.98;5.72;;;;;;;8.34;73.74;101418.97;4997384;28;20034;-47
2022/04/21 04:29:32;;;;;;;9.32;6.10;;;;;;;8.54;72.99;101418.69;5013686;28;20057;-45
2022/04/21 04:31:57;;;;;;;9.90;6.30;;;;;;;8.59;72.78;101411.31;5013041;28;20053;-45
2022/04/21 04:34:23;;;;;;;11.90;5.80;;;;;;;8.48;72.89;101403.88;5013671;28;20080;-47
2022/04/21 04:36:49;;;;;;;11.07;6.03;;;;;;;8.28;73.95;101408.44;5013823;28;20030;-50
2022/04/21 04:39:15;;;;;;;11.02;5.80;;;;;;;8.20;73.61;101406.69;5013976;28;20030;-47
2022/04/21 04:44:26;;;;;;;10.88;5.88;;;;;;;7.98;74.56;101422.66;5014316;28;20376;-47
2022/04/21 04:46:51;;;;;;;9.27;5.68;;;;;;;8.14;74.55;101426.13;5013623;28;20025;-46
2022/04/21 04:49:16;;;;;;;15.02;6.05;;;;;;;8.07;75.04;101432.03;5013573;28;20045;-46
2022/04/21 04:51:42;;;;;;;9.13;5.53;;;;;;;7.87;75.95;101426.31;5013522;28;20026;-46
2022/04/21 04:54:12;;;;;;;10.27;6.38;;;;;;;8.02;75.36;101429.91;5013370;28;20030;-47
2022/04/21 04:56:40;;;;;;;9.38;5.70;;;;;;;8.04;75.01;101429.78;5013428;28;20079;-46
2022/04/21 04:59:05;;;;;;;8.93;5.60;;;;;;;8.03;74.69;101431.53;5014004;28;20034;-46
2022/04/21 05:01:33;;;;;;;12.85;5.88;;;;;;;8.00;74.44;101431.84;5013945;28;20037;-46
2022/04/21 05:04:02;;;;;;;12.57;5.60;;;;;;;7.95;75.33;101436.66;5013722;28;20427;-47
2022/04/21 05:06:28;;;;;;;9.07;5.45;;;;;;;8.04;74.45;101432.34;4995729;28;20034;-44
2022/04/21 05:08:55;;;;;;;10.35;5.75;;;;;;;8.08;74.37;101431.88;5013304;28;20373;-45
2022/04/21 05:11:21;;;;;;;12.48;5.60;;;;;;;8.31;73.18;101437.25;5013632;28;20445;-46
2022/04/21 05:13:46;;;;;;;9.35;5.38;;;;;;;8.26;73.23;101441.28;5013008;28;20080;-46
2022/04/21 05:16:12;;;;;;;9.43;5.40;;;;;;;8.22;72.65;101437.41;5013134;28;20136;-46
2022/04/21 05:18:38;;;;;;;7.70;5.18;;;;;;;8.22;72.72;101437.41;5013561;28;20096;-46
2022/04/21 05:21:03;;;;;;;10.95;5.55;;;;;;;8.34;72.29;101431.84;5014051;28;20042;-46
2022/04/21 05:23:34;;;;;;;9.02;5.18;;;;;;;8.56;71.38;101434.81;5013226;28;20057;-46
2022/04/21 05:26:00;;;;;;;11.00;5.00;;;;;;;8.62;71.28;101429.03;5013481;28;20026;-47
2022/04/21 05:28:26;;;;;;;10.00;5.07;;;;;;;8.76;70.41;101432.75;5013339;28;20018;-48
2022/04/21 05:31:01;;;;;;;7.00;4.85;;;;;;;8.44;71.46;101428.34;5013443;28;20026;-45
2022/04/21 05:33:28;;;;;;;7.05;5.03;;;;;;;8.56;70.65;101434.81;5013477;28;20017;-45
2022/04/21 05:35:55;;;;;;;7.45;5.20;;;;;;;8.63;70.57;101429.81;5013277;28;20033;-46
2022/04/21 05:38:21;;;;;;;9.70;5.13;;;;;;;8.75;70.58;101426.00;5013129;28;20057;-45
2022/04/21 05:40:47;;;;;;;9.60;5.03;;;;;;;8.73;70.37;101426.16;5013920;28;20033;-45
2022/04/21 05:43:17;;;;;;;8.88;5.05;;;;;;;8.96;70.25;101438.41;5012858;28;20551;-44
2022/04/21 05:45:42;;;;;;;10.60;5.68;;;;;;;8.95;69.83;101429.09;5012801;28;20469;-45
2022/04/21 05:48:08;;;;;;;9.02;5.35;;;;;;;9.11;69.11;101423.91;5012790;28;20034;-46
2022/04/21 05:50:34;;;;;;;12.63;5.13;;;;;;;9.08;68.76;101423.44;5013105;28;20033;-45
2022/04/21 05:53:02;;;;;;;8.68;5.10;;;;;;;9.17;68.13;101419.88;5014642;28;20492;-47
2022/04/21 05:55:28;;;;;;;9.05;5.10;;;;;;;9.38;67.41;101420.22;5016539;28;20072;-46
2022/04/21 05:57:54;;;;;;;10.57;5.22;;;;;;;9.75;66.59;101421.41;5015987;28;20026;-47
2022/04/21 06:00:20;;;;;;;11.23;5.30;;;;;;;14.52;53.66;101422.19;5015994;28;20036;-46
2022/04/21 06:02:45;;;;;;;8.18;4.95;;;;;;;17.14;43.93;101413.13;5016551;28;20381;-46
2022/04/21 06:05:10;;;;;;;6.25;4.47;;;;;;;17.65;42.25;101411.22;5016621;28;20492;-46
2022/04/21 06:07:36;;;;;;;9.68;4.45;;;;;;;19.98;38.04;101411.00;5016327;28;20025;-45
2022/04/21 06:10:01;;;;;;;8.38;4.38;;;;;;;20.58;36.86;101419.41;5016379;28;20111;-46
2022/04/21 06:12:26;;;;;;;6.90;4.03;;;;;;;20.69;35.82;101419.34;5016679;28;20026;-45
2022/04/21 06:14:52;;;;;;;7.63;3.92;;;;;;;21.26;35.00;101420.13;5015965;28;20587;-48
2022/04/21 06:17:18;;;;;;;7.07;3.90;;;;;;;21.01;35.06;101412.72;5016402;28;20033;-45
2022/04/21 06:19:43;;;;;;;5.68;3.90;;;;;;;22.04;33.03;101412.94;5016074;28;20376;-45
2022/04/21 06:22:08;;;;;;;8.40;3.72;;;;;;;22.55;32.59;101423.16;5016046;28;20029;-46
2022/04/21 06:24:35;;;;;;;5.07;3.75;;;;;;;22.01;33.31;101418.69;5015530;28;20029;-46
2022/04/21 06:27:02;;;;;;;6.82;3.78;;;;;;;21.40;34.09;101418.78;5016160;28;20415;-45
2022/04/21 06:29:27;;;;;;;5.47;3.72;;;;;;;23.00;31.25;101419.31;5014630;28;20160;-44
2022/04/21 06:31:52;;;;;;;7.05;3.50;;;;;;;23.39;30.36;101417.94;5013255;28;20042;-45
2022/04/21 06:34:17;;;;;;;6.95;3.85;;;;;;;23.08;30.39;101418.81;5013052;28;20037;-46
2022/04/21 06:36:43;;;;;;;5.10;3.70;;;;;;;23.98;29.73;101427.38;5014906;28;20109;-44
2022/04/21 06:39:08;;;;;;;10.07;3.53;;;;;;;23.92;30.06;101427.63;5015198;28;20283;-47
2022/04/21 06:41:33;;;;;;;5.95;3.47;;;;;;;23.42;29.98;101420.06;5015274;28;20025;-43
2022/04/21 06:49:27;;;;;;;7.50;3.60;;;;;;;23.37;30.89;101414.75;5015411;28;20073;-45
2022/04/21 06:51:53;;;;;;;4.75;3.70;;;;;;;23.36;31.03;101413.16;5014756;28;20061;-46
2022/04/21 06:54:18;;;;;;;5.78;3.60;;;;;;;23.10;30.36;101420.16;5015222;28;20457;-46
2022/04/21 06:56:48;;;;;;;9.03;3.60;;;;;;;23.14;30.20;101423.06;5014958;28;20392;-46
2022/04/21 06:59:14;;;;;;;8.45;3.60;;;;;;;23.77;29.37;101426.53;5015633;28;20283;-45
2022/04/21 07:01:41;;;;;;;6.25;3.72;;;;;;;23.44;29.75;101430.31;5015008;28;20070;-45
2022/04/21 07:04:06;;;;;;;5.32;3.50;;;;;;;23.11;30.25;101420.94;5014425;28;20026;-45
2022/04/21 07:06:32;;;;;;;6.60;3.70;;;;;;;21.67;32.63;101425.97;5015299;28;20033;-45
2022/04/21 07:08:57;;;;;;;7.00;4.03;;;;;;;23.79;30.50;101421.78;5015552;28;20160;-44
2022/04/21 07:11:22;;;;;;;8.57;4.05;;;;;;;22.92;31.12;101428.44;5012046;28;20034;-49
2022/04/21 07:13:48;;;;;;;6.72;4.00;;;;;;;23.09;30.88;101421.19;5013570;28;20049;-43
2022/04/21 07:16:13;;;;;;;8.50;3.78;;;;;;;22.99;30.80;101423.78;5013427;28;20026;-44
2022/04/21 07:18:38;;;;;;;6.10;3.92;;;;;;;24.21;28.98;101422.66;5014036;28;20033;-46
2022/04/21 07:21:04;;;;;;;6.50;3.97;;;;;;;23.03;30.75;101426.69;5013930;28;20084;-44
2022/04/21 07:23:29;;;;;;;8.38;4.95;;;;;;;25.04;28.62;101426.88;5013686;28;20026;-42
2022/04/21 07:25:55;;;;;;;6.40;3.80;;;;;;;25.09;27.88;101425.00;5014747;28;20026;-41
2022/04/21 07:28:20;;;;;;;8.10;3.80;;;;;;;23.72;28.72;101434.44;5014785;28;20026;-38
2022/04/21 07:30:46;;;;;;;8.50;4.13;;;;;;;22.87;30.18;101423.94;5015441;28;20022;-41
2022/04/21 07:33:12;;;;;;;7.55;3.55;;;;;;;23.87;29.37;101426.53;5014874;28;20022;-42
2022/04/21 07:35:37;;;;;;;8.27;3.60;;;;;;;23.05;30.57;101425.41;5015229;28;20030;-41
2022/04/21 07:38:02;;;;;;;6.35;4.18;;;;;;;22.97;30.63;101433.78;5014738;28;20108;-41
2022/04/21 07:40:28;;;;;;;5.45;4.00;;;;;;;23.91;29.82;101428.66;5015003;28;20033;-41
2022/04/21 07:42:54;;;;;;;10.38;4.38;;;;;;;24.06;29.17;101429.50;5015003;28;20038;-41
2022/04/21 07:45:19;;;;;;;10.75;4.15;;;;;;;23.37;30.57;101441.13;5014583;28;20033;-41
2022/04/21 07:47:44;;;;;;;5.28;4.28;;;;;;;21.50;33.44;101426.00;5014650;28;20393;-41
2022/04/21 07:50:09;;;;;;;6.75;4.53;;;;;;;22.26;32.07;101434.75;5014697;28;20036;-41
2022/04/21 07:55:26;;;;;;;8.95;4.95;;;;;;;20.47;34.99;101427.06;5015141;28;20392;-41
2022/04/21 07:57:53;;;;;;;6.03;4.50;;;;;;;22.88;31.79;101430.00;4997100;28;20040;-41
2022/04/21 08:00:19;;;;;;;7.35;4.63;;;;;;;22.41;32.35;101428.03;5014564;28;20029;-41
2022/04/21 08:02:45;;;;;;;6.70;4.43;;;;;;;19.70;36.31;101442.44;4996546;28;20054;-40
2022/04/21 08:05:13;;;;;;;7.32;4.63;;;;;;;21.31;33.63;101423.63;5014568;28;20420;-42
2022/04/21 08:07:39;;;;;;;13.75;4.85;;;;;;;22.35;32.70;101427.19;5014471;28;20091;-41
2022/04/21 08:10:07;;;;;;;8.50;4.60;;;;;;;22.33;33.05;101420.59;5013972;28;20018;-42
2022/04/21 08:12:46;;;;;;;9.68;4.75;;;;;;;21.59;33.81;101422.69;5014142;28;20030;-41
2022/04/21 08:15:42;;;;;;;9.20;4.60;;;;;;;22.18;31.79;101422.06;5012324;28;20120;-42
2022/04/21 08:18:09;;;;;;;6.53;4.22;;;;;;;20.90;33.50;101417.81;4994959;28;20354;-44
2022/04/21 08:20:34;;;;;;;7.10;3.95;;;;;;;19.16;36.35;101424.22;5012297;28;20100;-46
2022/04/21 08:23:00;;;;;;;7.80;3.83;;;;;;;19.22;36.20;101420.72;5012320;28;20114;-49
2022/04/21 08:33:37;;;;;;;7.25;3.30;;;;;;;18.62;35.60;101418.25;5014010;28;20037;-46
2022/04/21 08:36:03;;;;;;;8.32;3.47;;;;;;;18.99;34.77;101418.06;5014059;28;20377;-46
2022/04/21 08:38:30;;;;;;;6.22;3.05;;;;;;;18.07;34.79;101424.44;5014207;28;20040;-45
2022/04/21 08:40:57;;;;;;;6.05;3.70;;;;;;;17.93;35.99;101423.00;4996034;28;20033;-46
2022/04/21 08:43:29;;;;;;;7.40;3.50;;;;;;;18.29;37.15;101434.41;5013504;28;20476;-45
2022/04/21 08:45:56;;;;;;;6.20;3.45;;;;;;;18.81;34.55;101425.00;4995960;28;20053;-46
2022/04/21 08:48:24;;;;;;;10.02;3.53;;;;;;;18.14;35.19;101435.59;5013765;28;20025;-43
2022/04/21 08:50:50;;;;;;;5.80;4.07;;;;;;;17.81;37.65;101420.34;5013582;28;20050;-46
2022/04/21 08:53:21;;;;;;;5.10;3.80;;;;;;;18.55;35.87;101420.16;5013416;28;20034;-46
2022/04/21 08:55:48;;;;;;;5.82;3.50;;;;;;;19.71;35.04;101421.22;5014372;28;20140;-46
2022/04/21 08:58:13;;;;;;;6.50;3.70;;;;;;;19.37;36.31;101422.84;5013464;28;20022;-46
2022/04/21 09:00:41;;;;;;;4.75;3.65;;;;;;;18.98;33.89;101414.66;5013446;28;20025;-45
2022/04/21 09:03:08;;;;;;;6.45;3.40;;;;;;;18.27;34.44;101422.34;5013781;28;20034;-45
2022/04/21 09:05:34;;;;;;;5.50;3.72;;;;;;;19.46;34.63;101408.38;5013261;28;20105;-45
2022/04/21 09:08:00;;;;;;;6.63;3.80;;;;;;;18.49;35.13;101411.38;5013225;28;20504;-46
2022/04/21 09:10:28;;;;;;;9.48;3.47;;;;;;;18.78;34.84;101414.97;4995753;28;20358;-46
2022/04/21 09:12:56;;;;;;;10.15;3.75;;;;;;;19.19;35.41;101410.69;5013205;28;20453;-46
2022/04/21 09:15:30;;;;;;;8.32;3.40;;;;;;;19.79;33.07;101406.94;5013466;28;20044;-44
2022/04/21 09:18:01;;;;;;;9.10;3.40;;;;;;;19.13;34.39;101409.78;4978637;28;20026;-45
2022/04/21 09:20:35;;;;;;;6.97;3.20;;;;;;;19.41;34.16;101407.47;5012182;28;20365;-45
2022/04/21 09:23:04;;;;;;;11.35;3.38;;;;;;;19.34;33.92;101399.72;5013797;28;20388;-44
2022/04/21 09:25:32;;;;;;;4.97;3.00;;;;;;;19.93;33.02;101399.59;5011515;28;20025;-44
2022/04/21 09:27:59;;;;;;;9.05;3.00;;;;;;;20.55;32.83;101397.03;4995225;28;20465;-44
2022/04/21 09:30:25;;;;;;;6.05;3.05;;;;;;;19.83;32.80;101387.91;4998197;28;20105;-44
2022/04/21 09:32:56;;;;;;;6.43;2.97;;;;;;;19.61;32.20;101387.69;5015006;28;20029;-46
2022/04/21 09:35:23;;;;;;;4.93;2.78;;;;;;;20.95;31.14;101381.09;5015053;28;20037;-43
2022/04/21 09:37:57;;;;;;;8.57;2.22;;;;;;;19.97;29.02;101377.94;4982145;28;20417;-44
2022/04/21 09:40:24;;;;;;;5.60;2.20;;;;;;;19.16;30.13;101387.53;5017011;28;20034;-46
2022/04/21 09:43:00;;;;;;;5.10;2.10;;;;;;;18.03;31.85;101387.44;5015600;28;20555;-41
2022/04/21 09:48:23;;;;;;;4.75;1.98;;;;;;;19.90;30.06;101382.50;5017084;28;20072;-41
2022/04/21 09:50:53;;;;;;;3.10;1.70;;;;;;;19.70;28.85;101382.91;4997936;28;20061;-40
2022/04/21 09:53:24;;;;;;;3.50;2.13;;;;;;;20.02;29.64;101375.41;5016051;28;20030;-41
2022/04/21 09:56:07;;;;;;;2.90;1.80;;;;;;;19.47;29.35;101375.88;5015402;28;20033;-40
2022/04/21 09:58:36;;;;;;;;;;;;;;;19.55;29.82;101372.09;5016263;28;20033;-40
2022/04/21 10:01:01;;;;;;;3.67;1.63;;;;;;;19.82;29.56;101372.38;5015590;28;19960;-39
2022/04/21 10:03:26;;;;;;;3.35;1.60;;;;;;;19.45;28.38;101372.72;4998414;28;20481;-40
2022/04/21 10:05:52;;;;;;;5.40;1.70;;;;;;;19.51;28.67;101371.00;5016227;28;20048;-40
2022/04/21 10:08:19;;;;;;;2.60;1.60;;;;;;;20.41;28.75;101367.66;5015492;28;20049;-40
2022/04/21 10:10:46;;;;;;;3.72;1.98;;;;;;;20.00;28.31;101353.06;4998465;28;20029;-40
2022/04/21 10:13:12;;;;;;;2.55;1.60;;;;;;;20.48;27.45;101359.59;5013506;28;20092;-40
2022/04/21 10:15:38;;;;;;;3.55;1.75;;;;;;;20.28;27.75;101360.06;5015304;28;20026;-41
2022/04/21 10:18:04;;;;;;;4.95;1.90;;;;;;;20.13;29.03;101355.38;5014415;28;20021;-39
2022/04/21 10:20:31;;;;;;;5.57;1.75;;;;;;;20.60;28.77;101351.69;5015327;28;20541;-40
2022/04/21 10:22:59;;;;;;;6.40;1.88;;;;;;;20.76;28.44;101344.84;4980767;28;20120;-41
2022/04/21 10:25:39;;;;;;;6.85;1.90;;;;;;;19.55;27.86;101341.44;5015875;28;20034;-38
2022/04/21 10:28:42;;;;;;;6.20;1.60;;;;;;;19.83;28.12;101345.16;5016200;28;20109;-42
2022/04/21 10:31:35;;;;;;;2.55;1.65;;;;;;;20.80;28.92;101328.38;5016103;28;20139;-41
2022/04/21 10:34:07;;;;;;;11.50;2.22;;;;;;;19.47;29.13;101336.56;4998477;28;20025;-40
2022/04/21 10:36:48;;;;;;;10.52;2.50;;;;;;;19.46;29.22;101331.56;5016165;28;20026;-41
2022/04/21 10:39:16;;;;;;;5.00;2.20;;;;;;;19.83;30.83;101338.06;5014593;28;20172;-41
2022/04/21 10:41:41;;;;;;;3.72;2.35;;;;;;;20.13;29.79;101316.00;5015831;28;20367;-42
2022/04/21 10:44:26;;;;;;;4.35;2.40;;;;;;;19.57;30.73;101328.13;5015532;28;20022;-41
2022/04/21 10:47:30;;;;;;;5.65;2.55;;;;;;;18.93;31.35;101321.06;5015640;28;20029;-40
2022/04/21 10:50:19;;;;;;;5.13;2.20;;;;;;;20.23;29.83;101315.41;5014836;28;20551;-40
2022/04/21 10:58:34;;;;;;;5.53;2.92;;;;;;;20.66;30.36;101312.16;5016123;28;20041;-44
2022/04/21 11:01:13;;;;;;;4.40;2.40;;;;;;;20.63;31.47;101309.19;5015988;28;20025;-45
2022/04/21 11:03:40;;;;;;;4.88;2.92;;;;;;;20.24;31.76;101312.53;5015744;28;20306;-44
2022/04/21 11:06:07;;;;;;;3.88;2.40;;;;;;;21.00;30.46;101308.63;5015782;28;20044;-44
2022/04/21 11:08:33;;;;;;;7.05;2.92;;;;;;;20.62;30.55;101289.22;5015228;28;20054;-46
2022/04/21 11:10:58;;;;;;;4.30;2.63;;;;;;;21.13;30.52;101292.53;5015155;28;20499;-45
2022/04/21 11:13:39;;;;;;;3.90;2.63;;;;;;;21.80;29.29;101289.56;5015079;28;20046;-45
2022/04/21 11:16:05;;;;;;;4.97;2.58;;;;;;;21.25;29.64;101301.06;5014982;28;20025;-46
2022/04/21 11:18:31;;;;;;;8.88;2.25;;;;;;;21.16;28.84;101295.44;5014718;28;20041;-46
2022/04/21 11:21:26;;;;;;;4.55;2.60;;;;;;;20.72;30.28;101299.88;5014947;28;20026;-45
2022/04/21 11:23:51;;;;;;;6.18;2.80;;;;;;;21.77;29.11;101294.53;5014977;28;20075;-45
2022/04/21 11:26:17;;;;;;;8.63;2.80;;;;;;;21.68;28.56;101294.19;5014697;28;20026;-46
2022/04/21 11:28:46;;;;;;;3.97;2.88;;;;;;;22.22;29.56;101294.16;5014637;28;20277;-46
2022/04/21 11:31:13;;;;;;;6.32;2.75;;;;;;;22.08;29.85;101290.34;5015346;28;20368;-47
2022/04/21 11:33:39;;;;;;;6.55;2.92;;;;;;;21.19;29.24;101284.44;5014813;28;20037;-45
2022/04/21 11:36:05;;;;;;;6.07;3.00;;;;;;;19.95;31.39;101290.00;5014685;28;20092;-45
2022/04/21 11:38:34;;;;;;;8.13;2.70;;;;;;;20.63;30.17;101296.06;5014940;28;20112;-45
2022/04/21 11:41:04;;;;;;;9.50;3.05;;;;;;;19.12;31.88;101292.91;4997352;28;20088;-46
2022/04/21 11:43:30;;;;;;;5.57;2.97;;;;;;;20.07;31.17;101293.34;5013717;28;20045;-43
2022/04/21 11:45:57;;;;;;;6.03;3.53;;;;;;;20.64;29.46;101274.03;5014147;28;20022;-46
2022/04/21 11:48:38;;;;;;;10.43;4.00;;;;;;;21.24;28.27;101286.34;5014511;28;20084;-42
2022/04/21 11:51:08;;;;;;;8.70;3.60;;;;;;;21.57;29.40;101277.50;5014286;28;20095;-47
2022/04/21 11:53:36;;;;;;;7.78;5.07;;;;;;;21.12;29.05;101269.91;5015294;28;20041;-46
2022/04/21 11:56:05;;;;;;;8.13;4.90;;;;;;;21.09;28.58;101278.25;4997138;28;20499;-45
2022/04/21 11:58:34;;;;;;;10.77;5.57;;;;;;;19.89;29.97;101281.25;5013843;28;20057;-46
2022/04/21 12:06:55;;;;;;;10.18;7.10;;;;;;;21.92;28.93;101268.34;5013891;28;20052;-45
2022/04/21 12:09:22;;;;;;;9.73;6.70;;;;;;;19.97;29.81;101265.13;5013992;28;20114;-42
2022/04/21 12:11:54;;;;;;;11.13;6.93;;;;;;;21.39;28.88;101268.13;5013899;28;20030;-45
2022/04/21 12:14:20;;;;;;;11.70;7.28;;;;;;;19.97;30.41;101265.13;5013451;28;20077;-44
2022/04/21 12:16:49;;;;;;;13.70;8.18;;;;;;;20.10;30.19;101263.22;5014166;28;20512;-46
2022/04/21 12:19:17;;;;;;;11.90;7.65;;;;;;;20.86;29.48;101260.91;5014365;28;20040;-45